sensor_id;sensor_type;location;lat;lon;timestamp;temperature;humidity
76291;DHT22;65100;46.884;17.410;2023-02-01T00:00:55;2.73;74.75
76291;DHT22;65100;46.884;17.410;2023-02-01T00:03:20;2.40;76.19
76291;DHT22;65100;46.884;17.410;2023-02-01T00:05:55;2.54;77.00
76291;DHT22;65100;46.884;17.410;2023-02-01T00:08:21;2.29;77.70
76291;DHT22;65100;46.884;17.410;2023-02-01T00:10:47;1.98;79.02
76291;DHT22;65100;46.884;17.410;2023-02-01T00:13:12;1.88;78.50
76291;DHT22;65100;46.884;17.410;2023-02-01T00:15:38;1.86;78.83
76291;DHT22;65100;46.884;17.410;2023-02-01T00:18:03;2.43;76.62
76291;DHT22;65100;46.884;17.410;2023-02-01T00:20:28;2.33;76.71
76291;DHT22;65100;46.884;17.410;2023-02-01T00:22:54;2.35;76.48
76291;DHT22;65100;46.884;17.410;2023-02-01T00:25:19;2.08;77.03
76291;DHT22;65100;46.884;17.410;2023-02-01T00:27:48;1.75;78.43
76291;DHT22;65100;46.884;17.410;2023-02-01T00:30:14;2.30;75.80
76291;DHT22;65100;46.884;17.410;2023-02-01T00:32:40;2.28;75.10
76291;DHT22;65100;46.884;17.410;2023-02-01T00:35:06;1.70;77.34
76291;DHT22;65100;46.884;17.410;2023-02-01T00:37:33;1.85;77.61
76291;DHT22;65100;46.884;17.410;2023-02-01T00:39:58;2.25;76.79
76291;DHT22;65100;46.884;17.410;2023-02-01T00:42:24;2.11;75.68
76291;DHT22;65100;46.884;17.410;2023-02-01T00:44:49;1.62;77.27
76291;DHT22;65100;46.884;17.410;2023-02-01T00:47:15;1.36;78.89
76291;DHT22;65100;46.884;17.410;2023-02-01T00:49:40;1.19;79.66
76291;DHT22;65100;46.884;17.410;2023-02-01T00:52:06;0.99;80.46
76291;DHT22;65100;46.884;17.410;2023-02-01T00:54:32;1.65;77.32
76291;DHT22;65100;46.884;17.410;2023-02-01T00:56:58;1.43;78.71
76291;DHT22;65100;46.884;17.410;2023-02-01T00:59:23;1.50;78.70
76291;DHT22;65100;46.884;17.410;2023-02-01T01:01:49;1.19;80.09
76291;DHT22;65100;46.884;17.410;2023-02-01T01:04:14;1.30;80.63
76291;DHT22;65100;46.884;17.410;2023-02-01T01:06:39;1.79;77.74
76291;DHT22;65100;46.884;17.410;2023-02-01T01:09:07;1.78;78.29
76291;DHT22;65100;46.884;17.410;2023-02-01T01:11:35;1.81;78.48
76291;DHT22;65100;46.884;17.410;2023-02-01T01:14:01;1.52;79.27
76291;DHT22;65100;46.884;17.410;2023-02-01T01:16:28;1.54;80.56
76291;DHT22;65100;46.884;17.410;2023-02-01T01:18:55;1.72;77.38
76291;DHT22;65100;46.884;17.410;2023-02-01T01:21:20;1.74;77.66
76291;DHT22;65100;46.884;17.410;2023-02-01T01:23:46;1.48;78.08
76291;DHT22;65100;46.884;17.410;2023-02-01T01:26:16;1.55;79.57
76291;DHT22;65100;46.884;17.410;2023-02-01T01:28:41;1.65;78.23
76291;DHT22;65100;46.884;17.410;2023-02-01T01:31:12;1.37;78.98
76291;DHT22;65100;46.884;17.410;2023-02-01T01:33:37;1.28;79.93
76291;DHT22;65100;46.884;17.410;2023-02-01T01:36:08;1.51;78.34
76291;DHT22;65100;46.884;17.410;2023-02-01T01:38:40;1.36;79.30
76291;DHT22;65100;46.884;17.410;2023-02-01T01:41:07;1.01;79.95
76291;DHT22;65100;46.884;17.410;2023-02-01T01:46:25;0.99;78.20
76291;DHT22;65100;46.884;17.410;2023-02-01T01:49:13;0.66;80.58
76291;DHT22;65100;46.884;17.410;2023-02-01T01:51:59;1.17;78.22
76291;DHT22;65100;46.884;17.410;2023-02-01T01:54:29;1.01;77.86
76291;DHT22;65100;46.884;17.410;2023-02-01T01:57:00;1.01;78.17
76291;DHT22;65100;46.884;17.410;2023-02-01T01:59:26;0.58;79.25
76291;DHT22;65100;46.884;17.410;2023-02-01T02:01:52;0.69;80.37
76291;DHT22;65100;46.884;17.410;2023-02-01T02:04:18;0.92;78.35
76291;DHT22;65100;46.884;17.410;2023-02-01T02:06:54;0.99;77.50
76291;DHT22;65100;46.884;17.410;2023-02-01T02:09:22;1.03;77.34
76291;DHT22;65100;46.884;17.410;2023-02-01T02:11:48;1.00;77.04
76291;DHT22;65100;46.884;17.410;2023-02-01T02:14:15;1.00;77.12
76291;DHT22;65100;46.884;17.410;2023-02-01T02:22:59;1.06;77.88
76291;DHT22;65100;46.884;17.410;2023-02-01T02:30:56;0.84;78.68
76291;DHT22;65100;46.884;17.410;2023-02-01T02:33:50;0.97;77.75
76291;DHT22;65100;46.884;17.410;2023-02-01T02:36:26;0.92;78.01
76291;DHT22;65100;46.884;17.410;2023-02-01T02:39:27;0.72;77.76
76291;DHT22;65100;46.884;17.410;2023-02-01T02:45:08;0.53;78.83
76291;DHT22;65100;46.884;17.410;2023-02-01T02:48:10;0.72;79.08
76291;DHT22;65100;46.884;17.410;2023-02-01T02:54:06;0.59;78.55
76291;DHT22;65100;46.884;17.410;2023-02-01T02:56:51;0.50;79.98
76291;DHT22;65100;46.884;17.410;2023-02-01T02:59:38;0.24;81.24
76291;DHT22;65100;46.884;17.410;2023-02-01T03:02:25;0.68;79.13
76291;DHT22;65100;46.884;17.410;2023-02-01T03:05:09;0.92;78.23
76291;DHT22;65100;46.884;17.410;2023-02-01T03:13:24;-0.05;81.80
76291;DHT22;65100;46.884;17.410;2023-02-01T03:18:44;0.19;81.65
76291;DHT22;65100;46.884;17.410;2023-02-01T03:21:17;-0.01;82.64
76291;DHT22;65100;46.884;17.410;2023-02-01T03:23:46;0.28;81.75
76291;DHT22;65100;46.884;17.410;2023-02-01T03:26:14;0.66;79.94
76291;DHT22;65100;46.884;17.410;2023-02-01T03:28:48;0.76;78.61
76291;DHT22;65100;46.884;17.410;2023-02-01T03:31:16;0.69;79.30
76291;DHT22;65100;46.884;17.410;2023-02-01T03:33:41;0.77;77.98
76291;DHT22;65100;46.884;17.410;2023-02-01T03:36:49;1.00;77.42
76291;DHT22;65100;46.884;17.410;2023-02-01T03:39:49;1.30;77.71
76291;DHT22;65100;46.884;17.410;2023-02-01T03:42:33;0.97;77.54
76291;DHT22;65100;46.884;17.410;2023-02-01T03:47:43;0.68;79.39
76291;DHT22;65100;46.884;17.410;2023-02-01T03:50:14;0.84;79.66
76291;DHT22;65100;46.884;17.410;2023-02-01T03:52:47;1.43;78.72
76291;DHT22;65100;46.884;17.410;2023-02-01T03:55:15;1.44;77.63
76291;DHT22;65100;46.884;17.410;2023-02-01T03:57:45;1.30;78.05
76291;DHT22;65100;46.884;17.410;2023-02-01T04:00:19;0.90;79.83
76291;DHT22;65100;46.884;17.410;2023-02-01T04:02:45;1.00;82.18
76291;DHT22;65100;46.884;17.410;2023-02-01T04:05:10;1.34;79.48
76291;DHT22;65100;46.884;17.410;2023-02-01T04:07:36;1.44;78.88
76291;DHT22;65100;46.884;17.410;2023-02-01T04:10:03;1.12;80.18
76291;DHT22;65100;46.884;17.410;2023-02-01T04:12:28;0.96;81.23
76291;DHT22;65100;46.884;17.410;2023-02-01T04:14:54;1.19;80.66
76291;DHT22;65100;46.884;17.410;2023-02-01T04:17:20;1.01;80.94
76291;DHT22;65100;46.884;17.410;2023-02-01T04:19:45;1.40;79.87
76291;DHT22;65100;46.884;17.410;2023-02-01T04:22:11;1.57;78.70
76291;DHT22;65100;46.884;17.410;2023-02-01T04:24:37;1.20;80.16
76291;DHT22;65100;46.884;17.410;2023-02-01T04:27:03;1.57;78.51
76291;DHT22;65100;46.884;17.410;2023-02-01T04:29:28;1.71;77.12
76291;DHT22;65100;46.884;17.410;2023-02-01T04:31:53;1.70;77.38
76291;DHT22;65100;46.884;17.410;2023-02-01T04:34:19;1.74;77.17
76291;DHT22;65100;46.884;17.410;2023-02-01T04:36:44;1.71;77.48
76291;DHT22;65100;46.884;17.410;2023-02-01T04:39:10;1.65;77.71
76291;DHT22;65100;46.884;17.410;2023-02-01T04:41:35;1.68;77.58
76291;DHT22;65100;46.884;17.410;2023-02-01T04:44:01;1.78;77.24
76291;DHT22;65100;46.884;17.410;2023-02-01T04:46:26;1.81;77.27
76291;DHT22;65100;46.884;17.410;2023-02-01T04:48:52;1.28;79.73
76291;DHT22;65100;46.884;17.410;2023-02-01T04:51:17;1.03;81.67
76291;DHT22;65100;46.884;17.410;2023-02-01T04:53:44;1.08;81.49
76291;DHT22;65100;46.884;17.410;2023-02-01T04:56:09;1.30;80.16
76291;DHT22;65100;46.884;17.410;2023-02-01T04:58:35;1.27;80.71
76291;DHT22;65100;46.884;17.410;2023-02-01T05:01:05;1.17;80.99
76291;DHT22;65100;46.884;17.410;2023-02-01T05:03:34;1.31;79.38
76291;DHT22;65100;46.884;17.410;2023-02-01T05:06:00;1.48;78.83
76291;DHT22;65100;46.884;17.410;2023-02-01T05:08:26;1.27;79.75
76291;DHT22;65100;46.884;17.410;2023-02-01T05:10:52;1.20;79.71
76291;DHT22;65100;46.884;17.410;2023-02-01T05:13:18;1.19;80.08
76291;DHT22;65100;46.884;17.410;2023-02-01T05:16:02;1.71;78.97
76291;DHT22;65100;46.884;17.410;2023-02-01T05:18:27;1.47;79.08
76291;DHT22;65100;46.884;17.410;2023-02-01T05:20:53;1.51;79.04
76291;DHT22;65100;46.884;17.410;2023-02-01T05:23:18;1.68;78.89
76291;DHT22;65100;46.884;17.410;2023-02-01T05:25:43;1.64;78.99
76291;DHT22;65100;46.884;17.410;2023-02-01T05:28:09;1.33;80.38
76291;DHT22;65100;46.884;17.410;2023-02-01T05:30:34;1.10;81.64
76291;DHT22;65100;46.884;17.410;2023-02-01T05:33:01;1.16;80.66
76291;DHT22;65100;46.884;17.410;2023-02-01T05:35:27;1.06;81.05
76291;DHT22;65100;46.884;17.410;2023-02-01T05:37:52;1.19;81.09
76291;DHT22;65100;46.884;17.410;2023-02-01T05:40:18;1.55;79.06
76291;DHT22;65100;46.884;17.410;2023-02-01T05:42:43;1.28;80.27
76291;DHT22;65100;46.884;17.410;2023-02-01T05:45:09;1.36;79.79
76291;DHT22;65100;46.884;17.410;2023-02-01T05:47:34;1.24;79.66
76291;DHT22;65100;46.884;17.410;2023-02-01T05:50:00;1.33;81.72
76291;DHT22;65100;46.884;17.410;2023-02-01T05:52:25;1.36;80.61
76291;DHT22;65100;46.884;17.410;2023-02-01T05:54:50;1.43;80.70
76291;DHT22;65100;46.884;17.410;2023-02-01T05:57:17;1.23;81.70
76291;DHT22;65100;46.884;17.410;2023-02-01T05:59:43;0.99;82.43
76291;DHT22;65100;46.884;17.410;2023-02-01T06:02:12;1.40;80.79
76291;DHT22;65100;46.884;17.410;2023-02-01T06:04:38;1.06;81.91
76291;DHT22;65100;46.884;17.410;2023-02-01T06:07:05;1.57;80.26
76291;DHT22;65100;46.884;17.410;2023-02-01T06:09:32;1.41;79.87
76291;DHT22;65100;46.884;17.410;2023-02-01T06:11:57;1.20;80.40
76291;DHT22;65100;46.884;17.410;2023-02-01T06:14:23;1.16;81.79
76291;DHT22;65100;46.884;17.410;2023-02-01T06:16:49;1.00;81.31
76291;DHT22;65100;46.884;17.410;2023-02-01T06:19:15;1.14;80.69
76291;DHT22;65100;46.884;17.410;2023-02-01T06:21:40;1.50;79.17
76291;DHT22;65100;46.884;17.410;2023-02-01T06:24:06;1.44;79.93
76291;DHT22;65100;46.884;17.410;2023-02-01T06:26:31;1.67;79.98
76291;DHT22;65100;46.884;17.410;2023-02-01T06:28:57;1.23;81.55
76291;DHT22;65100;46.884;17.410;2023-02-01T06:31:22;1.08;83.17
76291;DHT22;65100;46.884;17.410;2023-02-01T06:33:48;1.43;81.03
76291;DHT22;65100;46.884;17.410;2023-02-01T06:36:14;1.78;79.64
76291;DHT22;65100;46.884;17.410;2023-02-01T06:38:45;1.61;80.07
76291;DHT22;65100;46.884;17.410;2023-02-01T06:41:11;1.33;80.91
76291;DHT22;65100;46.884;17.410;2023-02-01T06:43:36;1.54;80.39
76291;DHT22;65100;46.884;17.410;2023-02-01T06:46:05;1.89;78.19
76291;DHT22;65100;46.884;17.410;2023-02-01T06:48:30;1.79;78.12
76291;DHT22;65100;46.884;17.410;2023-02-01T06:50:56;1.74;78.47
76291;DHT22;65100;46.884;17.410;2023-02-01T06:53:21;1.91;77.96
76291;DHT22;65100;46.884;17.410;2023-02-01T06:55:57;1.79;78.70
76291;DHT22;65100;46.884;17.410;2023-02-01T06:58:23;1.85;78.06
76291;DHT22;65100;46.884;17.410;2023-02-01T07:00:49;1.57;78.93
76291;DHT22;65100;46.884;17.410;2023-02-01T07:03:14;1.55;80.24
76291;DHT22;65100;46.884;17.410;2023-02-01T07:05:40;1.95;78.43
76291;DHT22;65100;46.884;17.410;2023-02-01T07:08:05;2.05;78.39
76291;DHT22;65100;46.884;17.410;2023-02-01T07:10:31;2.08;78.45
76291;DHT22;65100;46.884;17.410;2023-02-01T07:12:59;2.05;78.73
76291;DHT22;65100;46.884;17.410;2023-02-01T07:15:25;1.98;78.84
76291;DHT22;65100;46.884;17.410;2023-02-01T07:17:50;1.55;80.22
76291;DHT22;65100;46.884;17.410;2023-02-01T07:20:16;1.54;80.56
76291;DHT22;65100;46.884;17.410;2023-02-01T07:22:42;1.48;81.51
76291;DHT22;65100;46.884;17.410;2023-02-01T07:25:07;1.50;81.74
76291;DHT22;65100;46.884;17.410;2023-02-01T07:27:34;2.18;79.13
76291;DHT22;65100;46.884;17.410;2023-02-01T07:30:00;2.25;78.68
76291;DHT22;65100;46.884;17.410;2023-02-01T07:32:28;1.74;80.47
76291;DHT22;65100;46.884;17.410;2023-02-01T07:34:53;1.72;81.83
76291;DHT22;65100;46.884;17.410;2023-02-01T07:37:19;2.05;79.86
76291;DHT22;65100;46.884;17.410;2023-02-01T07:39:44;1.95;80.26
76291;DHT22;65100;46.884;17.410;2023-02-01T07:42:09;2.24;78.73
76291;DHT22;65100;46.884;17.410;2023-02-01T07:44:35;2.14;79.00
76291;DHT22;65100;46.884;17.410;2023-02-01T07:47:00;2.57;78.17
76291;DHT22;65100;46.884;17.410;2023-02-01T07:49:26;2.62;78.80
76291;DHT22;65100;46.884;17.410;2023-02-01T07:51:51;2.33;79.94
76291;DHT22;65100;46.884;17.410;2023-02-01T07:54:17;2.15;79.67
76291;DHT22;65100;46.884;17.410;2023-02-01T07:56:43;2.30;79.52
76291;DHT22;65100;46.884;17.410;2023-02-01T07:59:08;2.80;78.20
76291;DHT22;65100;46.884;17.410;2023-02-01T08:01:34;2.69;77.92
76291;DHT22;65100;46.884;17.410;2023-02-01T08:04:03;2.39;79.22
76291;DHT22;65100;46.884;17.410;2023-02-01T08:06:30;2.38;79.07
76291;DHT22;65100;46.884;17.410;2023-02-01T08:08:57;2.42;78.72
76291;DHT22;65100;46.884;17.410;2023-02-01T08:11:24;2.25;80.26
76291;DHT22;65100;46.884;17.410;2023-02-01T08:13:50;2.26;80.06
76291;DHT22;65100;46.884;17.410;2023-02-01T08:16:17;2.40;79.78
76291;DHT22;65100;46.884;17.410;2023-02-01T08:18:43;2.84;77.04
76291;DHT22;65100;46.884;17.410;2023-02-01T08:21:11;2.93;75.77
76291;DHT22;65100;46.884;17.410;2023-02-01T08:23:38;2.92;75.10
76291;DHT22;65100;46.884;17.410;2023-02-01T08:28:32;3.13;74.88
76291;DHT22;65100;46.884;17.410;2023-02-01T08:30:58;3.26;75.27
76291;DHT22;65100;46.884;17.410;2023-02-01T08:33:23;3.28;75.06
76291;DHT22;65100;46.884;17.410;2023-02-01T08:35:48;3.27;74.09
76291;DHT22;65100;46.884;17.410;2023-02-01T08:38:14;3.21;75.09
76291;DHT22;65100;46.884;17.410;2023-02-01T08:40:39;3.17;75.65
76291;DHT22;65100;46.884;17.410;2023-02-01T08:43:07;3.47;74.04
76291;DHT22;65100;46.884;17.410;2023-02-01T08:45:32;3.21;75.03
76291;DHT22;65100;46.884;17.410;2023-02-01T08:47:59;3.41;74.28
76291;DHT22;65100;46.884;17.410;2023-02-01T08:50:25;3.39;76.15
76291;DHT22;65100;46.884;17.410;2023-02-01T08:52:52;3.57;78.27
76291;DHT22;65100;46.884;17.410;2023-02-01T08:55:17;3.89;74.81
76291;DHT22;65100;46.884;17.410;2023-02-01T08:57:43;4.15;71.32
76291;DHT22;65100;46.884;17.410;2023-02-01T09:00:13;4.23;75.43
76291;DHT22;65100;46.884;17.410;2023-02-01T09:02:39;4.03;72.25
76291;DHT22;65100;46.884;17.410;2023-02-01T09:05:05;3.55;74.13
76291;DHT22;65100;46.884;17.410;2023-02-01T09:07:32;3.50;74.22
76291;DHT22;65100;46.884;17.410;2023-02-01T09:09:58;3.75;73.72
76291;DHT22;65100;46.884;17.410;2023-02-01T09:12:27;3.82;71.10
76291;DHT22;65100;46.884;17.410;2023-02-01T09:14:53;4.01;72.73
76291;DHT22;65100;46.884;17.410;2023-02-01T09:17:18;3.86;74.00
76291;DHT22;65100;46.884;17.410;2023-02-01T09:19:43;3.98;71.49
76291;DHT22;65100;46.884;17.410;2023-02-01T09:22:10;3.83;72.62
76291;DHT22;65100;46.884;17.410;2023-02-01T09:24:35;3.98;72.65
76291;DHT22;65100;46.884;17.410;2023-02-01T09:27:01;3.92;71.45
76291;DHT22;65100;46.884;17.410;2023-02-01T09:29:26;4.20;71.73
76291;DHT22;65100;46.884;17.410;2023-02-01T09:31:52;4.23;70.94
76291;DHT22;65100;46.884;17.410;2023-02-01T09:34:17;4.32;70.23
76291;DHT22;65100;46.884;17.410;2023-02-01T09:36:43;4.29;69.43
76291;DHT22;65100;46.884;17.410;2023-02-01T09:39:08;4.16;70.14
76291;DHT22;65100;46.884;17.410;2023-02-01T09:42:11;4.26;72.58
76291;DHT22;65100;46.884;17.410;2023-02-01T09:47:19;4.81;76.16
76291;DHT22;65100;46.884;17.410;2023-02-01T09:49:54;5.25;75.71
76291;DHT22;65100;46.884;17.410;2023-02-01T09:52:28;5.28;74.97
76291;DHT22;65100;46.884;17.410;2023-02-01T09:55:16;5.49;67.21
76291;DHT22;65100;46.884;17.410;2023-02-01T09:58:09;5.58;64.67
76291;DHT22;65100;46.884;17.410;2023-02-01T10:00:38;5.75;64.22
76291;DHT22;65100;46.884;17.410;2023-02-01T10:03:11;5.82;64.95
76291;DHT22;65100;46.884;17.410;2023-02-01T10:14:30;6.67;63.97
76291;DHT22;65100;46.884;17.410;2023-02-01T10:25:31;7.18;61.10
76291;DHT22;65100;46.884;17.410;2023-02-01T10:28:00;7.27;61.21
76291;DHT22;65100;46.884;17.410;2023-02-01T10:30:33;7.42;60.74
76291;DHT22;65100;46.884;17.410;2023-02-01T10:33:32;7.45;58.35
76291;DHT22;65100;46.884;17.410;2023-02-01T10:36:08;7.56;62.02
76291;DHT22;65100;46.884;17.410;2023-02-01T10:38:35;7.56;57.54
76291;DHT22;65100;46.884;17.410;2023-02-01T10:41:07;7.51;56.91
76291;DHT22;65100;46.884;17.410;2023-02-01T10:43:36;7.51;56.06
76291;DHT22;65100;46.884;17.410;2023-02-01T10:46:01;7.54;59.10
76291;DHT22;65100;46.884;17.410;2023-02-01T10:48:27;7.31;57.31
76291;DHT22;65100;46.884;17.410;2023-02-01T10:51:28;7.15;58.48
76291;DHT22;65100;46.884;17.410;2023-02-01T10:54:03;7.12;55.61
76291;DHT22;65100;46.884;17.410;2023-02-01T10:56:37;7.18;57.76
76291;DHT22;65100;46.884;17.410;2023-02-01T10:59:05;7.11;58.02
76291;DHT22;65100;46.884;17.410;2023-02-01T11:01:37;7.11;57.26
76291;DHT22;65100;46.884;17.410;2023-02-01T11:04:09;6.91;56.87
76291;DHT22;65100;46.884;17.410;2023-02-01T11:06:37;6.79;60.41
76291;DHT22;65100;46.884;17.410;2023-02-01T11:14:20;6.73;58.86
76291;DHT22;65100;46.884;17.410;2023-02-01T11:16:53;6.43;58.63
76291;DHT22;65100;46.884;17.410;2023-02-01T11:19:19;6.70;58.86
76291;DHT22;65100;46.884;17.410;2023-02-01T11:21:49;6.88;57.97
76291;DHT22;65100;46.884;17.410;2023-02-01T11:24:29;6.83;57.07
76291;DHT22;65100;46.884;17.410;2023-02-01T11:26:59;6.94;59.64
76291;DHT22;65100;46.884;17.410;2023-02-01T11:29:30;6.74;58.85
76291;DHT22;65100;46.884;17.410;2023-02-01T11:31:58;6.93;64.21
76291;DHT22;65100;46.884;17.410;2023-02-01T11:34:36;6.76;58.45
76291;DHT22;65100;46.884;17.410;2023-02-01T11:37:03;6.70;58.13
76291;DHT22;65100;46.884;17.410;2023-02-01T11:39:31;6.67;57.15
76291;DHT22;65100;46.884;17.410;2023-02-01T11:42:31;6.80;57.77
76291;DHT22;65100;46.884;17.410;2023-02-01T11:44:49;7.07;55.72
76291;DHT22;65100;46.884;17.410;2023-02-01T11:49:45;6.95;54.82
76291;DHT22;65100;46.884;17.410;2023-02-01T11:57:48;6.73;57.10
76291;DHT22;65100;46.884;17.410;2023-02-01T12:20:53;6.56;58.89
76291;DHT22;65100;46.884;17.410;2023-02-01T12:26:35;6.91;56.73
76291;DHT22;65100;46.884;17.410;2023-02-01T12:29:34;7.09;56.55
76291;DHT22;65100;46.884;17.410;2023-02-01T12:43:12;7.12;57.59
76291;DHT22;65100;46.884;17.410;2023-02-01T12:45:49;7.09;57.30
76291;DHT22;65100;46.884;17.410;2023-02-01T12:49:00;7.03;57.81
76291;DHT22;65100;46.884;17.410;2023-02-01T12:51:33;7.04;57.59
76291;DHT22;65100;46.884;17.410;2023-02-01T12:57:17;7.05;58.29
76291;DHT22;65100;46.884;17.410;2023-02-01T13:02:41;7.09;57.91
76291;DHT22;65100;46.884;17.410;2023-02-01T13:05:28;7.14;58.29
76291;DHT22;65100;46.884;17.410;2023-02-01T13:07:58;7.12;59.27
76291;DHT22;65100;46.884;17.410;2023-02-01T13:10:48;7.09;57.86
76291;DHT22;65100;46.884;17.410;2023-02-01T13:13:42;7.19;59.95
76291;DHT22;65100;46.884;17.410;2023-02-01T13:16:26;7.18;60.98
76291;DHT22;65100;46.884;17.410;2023-02-01T13:19:00;7.15;62.67
76291;DHT22;65100;46.884;17.410;2023-02-01T13:21:31;7.21;65.93
76291;DHT22;65100;46.884;17.410;2023-02-01T13:23:58;7.21;69.09
76291;DHT22;65100;46.884;17.410;2023-02-01T13:26:24;7.21;68.11
76291;DHT22;65100;46.884;17.410;2023-02-01T13:28:53;7.11;65.75
76291;DHT22;65100;46.884;17.410;2023-02-01T13:42:33;6.60;67.60
76291;DHT22;65100;46.884;17.410;2023-02-01T13:45:03;6.66;67.91
76291;DHT22;65100;46.884;17.410;2023-02-01T13:47:33;6.95;70.11
76291;DHT22;65100;46.884;17.410;2023-02-01T13:50:03;7.01;67.81
76291;DHT22;65100;46.884;17.410;2023-02-01T13:52:37;7.05;69.86
76291;DHT22;65100;46.884;17.410;2023-02-01T13:57:40;7.27;68.20
76291;DHT22;65100;46.884;17.410;2023-02-01T14:00:34;7.25;67.13
76291;DHT22;65100;46.884;17.410;2023-02-01T14:13:39;7.12;70.84
76291;DHT22;65100;46.884;17.410;2023-02-01T14:26:43;7.15;67.83
76291;DHT22;65100;46.884;17.410;2023-02-01T14:36:47;7.41;66.23
76291;DHT22;65100;46.884;17.410;2023-02-01T14:47:51;7.96;64.57
76291;DHT22;65100;46.884;17.410;2023-02-01T14:53:02;8.32;62.93
76291;DHT22;65100;46.884;17.410;2023-02-01T14:55:53;8.33;63.71
76291;DHT22;65100;46.884;17.410;2023-02-01T15:03:56;8.27;64.00
76291;DHT22;65100;46.884;17.410;2023-02-01T15:06:30;8.27;64.78
76291;DHT22;65100;46.884;17.410;2023-02-01T15:09:46;8.32;64.84
76291;DHT22;65100;46.884;17.410;2023-02-01T15:12:17;8.26;66.06
76291;DHT22;65100;46.884;17.410;2023-02-01T15:15:23;8.22;66.67
76291;DHT22;65100;46.884;17.410;2023-02-01T15:18:16;7.82;63.18
76291;DHT22;65100;46.884;17.410;2023-02-01T15:20:41;7.82;64.80
76291;DHT22;65100;46.884;17.410;2023-02-01T15:23:16;7.83;66.52
76291;DHT22;65100;46.884;17.410;2023-02-01T15:25:47;7.72;65.23
76291;DHT22;65100;46.884;17.410;2023-02-01T15:28:14;7.83;69.40
76291;DHT22;65100;46.884;17.410;2023-02-01T15:31:12;7.92;68.23
76291;DHT22;65100;46.884;17.410;2023-02-01T15:33:36;7.85;61.81
76291;DHT22;65100;46.884;17.410;2023-02-01T15:36:16;7.83;61.26
76291;DHT22;65100;46.884;17.410;2023-02-01T15:38:43;7.86;60.67
76291;DHT22;65100;46.884;17.410;2023-02-01T15:41:17;7.86;60.65
76291;DHT22;65100;46.884;17.410;2023-02-01T15:43:47;7.89;61.26
76291;DHT22;65100;46.884;17.410;2023-02-01T15:46:31;7.89;60.83
76291;DHT22;65100;46.884;17.410;2023-02-01T15:48:59;7.85;62.46
76291;DHT22;65100;46.884;17.410;2023-02-01T15:51:27;7.68;61.43
76291;DHT22;65100;46.884;17.410;2023-02-01T15:54:06;7.79;64.65
76291;DHT22;65100;46.884;17.410;2023-02-01T15:56:41;7.78;65.61
76291;DHT22;65100;46.884;17.410;2023-02-01T15:59:17;7.71;65.45
76291;DHT22;65100;46.884;17.410;2023-02-01T16:01:44;7.65;67.80
76291;DHT22;65100;46.884;17.410;2023-02-01T16:06:56;7.44;66.29
76291;DHT22;65100;46.884;17.410;2023-02-01T16:09:24;7.44;66.02
76291;DHT22;65100;46.884;17.410;2023-02-01T16:12:00;7.44;66.53
76291;DHT22;65100;46.884;17.410;2023-02-01T16:14:26;7.51;68.15
76291;DHT22;65100;46.884;17.410;2023-02-01T16:16:53;7.49;67.16
76291;DHT22;65100;46.884;17.410;2023-02-01T16:19:19;7.61;68.58
76291;DHT22;65100;46.884;17.410;2023-02-01T16:21:46;7.61;67.02
76291;DHT22;65100;46.884;17.410;2023-02-01T16:24:12;7.72;67.65
76291;DHT22;65100;46.884;17.410;2023-02-01T16:26:38;7.71;67.15
76291;DHT22;65100;46.884;17.410;2023-02-01T16:29:04;7.71;67.98
76291;DHT22;65100;46.884;17.410;2023-02-01T16:31:34;7.63;69.80
76291;DHT22;65100;46.884;17.410;2023-02-01T16:34:00;7.62;68.29
76291;DHT22;65100;46.884;17.410;2023-02-01T16:36:26;7.71;67.65
76291;DHT22;65100;46.884;17.410;2023-02-01T16:38:54;7.71;67.54
76291;DHT22;65100;46.884;17.410;2023-02-01T16:41:22;7.73;67.80
76291;DHT22;65100;46.884;17.410;2023-02-01T16:43:50;7.69;66.54
76291;DHT22;65100;46.884;17.410;2023-02-01T16:46:18;7.66;67.04
76291;DHT22;65100;46.884;17.410;2023-02-01T16:48:50;7.59;67.14
76291;DHT22;65100;46.884;17.410;2023-02-01T16:51:16;7.58;67.80
76291;DHT22;65100;46.884;17.410;2023-02-01T16:53:43;7.55;68.01
76291;DHT22;65100;46.884;17.410;2023-02-01T16:56:23;7.35;67.81
76291;DHT22;65100;46.884;17.410;2023-02-01T16:58:49;7.42;70.00
76291;DHT22;65100;46.884;17.410;2023-02-01T17:01:17;7.47;68.02
76291;DHT22;65100;46.884;17.410;2023-02-01T17:03:43;7.28;69.73
76291;DHT22;65100;46.884;17.410;2023-02-01T17:06:11;7.01;69.91
76291;DHT22;65100;46.884;17.410;2023-02-01T17:08:41;6.94;71.60
76291;DHT22;65100;46.884;17.410;2023-02-01T17:11:07;6.70;73.48
76291;DHT22;65100;46.884;17.410;2023-02-01T17:13:34;6.73;72.81
76291;DHT22;65100;46.884;17.410;2023-02-01T17:16:03;6.29;71.13
76291;DHT22;65100;46.884;17.410;2023-02-01T17:18:32;6.19;73.68
76291;DHT22;65100;46.884;17.410;2023-02-01T17:20:59;6.46;71.49
76291;DHT22;65100;46.884;17.410;2023-02-01T17:23:27;6.30;72.46
76291;DHT22;65100;46.884;17.410;2023-02-01T17:25:53;6.25;72.33
76291;DHT22;65100;46.884;17.410;2023-02-01T17:28:19;6.25;72.75
76291;DHT22;65100;46.884;17.410;2023-02-01T17:30:44;6.22;71.79
76291;DHT22;65100;46.884;17.410;2023-02-01T17:33:26;6.25;74.49
76291;DHT22;65100;46.884;17.410;2023-02-01T17:35:55;6.13;72.92
76291;DHT22;65100;46.884;17.410;2023-02-01T17:38:21;6.22;73.71
76291;DHT22;65100;46.884;17.410;2023-02-01T17:40:46;6.27;69.84
76291;DHT22;65100;46.884;17.410;2023-02-01T17:43:17;6.27;69.32
76291;DHT22;65100;46.884;17.410;2023-02-01T17:46:03;6.22;75.34
76291;DHT22;65100;46.884;17.410;2023-02-01T17:48:30;5.65;73.03
76291;DHT22;65100;46.884;17.410;2023-02-01T17:50:55;5.10;73.56
76291;DHT22;65100;46.884;17.410;2023-02-01T17:53:25;5.27;75.64
76291;DHT22;65100;46.884;17.410;2023-02-01T17:55:51;5.38;73.89
76291;DHT22;65100;46.884;17.410;2023-02-01T17:58:17;5.58;73.03
76291;DHT22;65100;46.884;17.410;2023-02-01T18:00:44;5.45;72.61
76291;DHT22;65100;46.884;17.410;2023-02-01T18:05:48;5.31;74.95
76291;DHT22;65100;46.884;17.410;2023-02-01T18:08:16;4.97;74.18
76291;DHT22;65100;46.884;17.410;2023-02-01T18:10:43;4.83;80.94
76291;DHT22;65100;46.884;17.410;2023-02-01T18:13:10;5.38;80.67
76291;DHT22;65100;46.884;17.410;2023-02-01T18:15:37;5.44;74.56
76291;DHT22;65100;46.884;17.410;2023-02-01T18:18:04;5.10;77.78
76291;DHT22;65100;46.884;17.410;2023-02-01T18:20:30;5.25;78.50
76291;DHT22;65100;46.884;17.410;2023-02-01T18:22:55;5.55;77.07
76291;DHT22;65100;46.884;17.410;2023-02-01T18:25:24;5.24;79.12
76291;DHT22;65100;46.884;17.410;2023-02-01T18:27:51;5.39;77.21
76291;DHT22;65100;46.884;17.410;2023-02-01T18:30:24;5.17;78.72
76291;DHT22;65100;46.884;17.410;2023-02-01T18:32:53;5.23;72.77
76291;DHT22;65100;46.884;17.410;2023-02-01T18:35:29;5.03;72.68
76291;DHT22;65100;46.884;17.410;2023-02-01T18:37:56;4.84;73.63
76291;DHT22;65100;46.884;17.410;2023-02-01T18:40:24;5.15;72.37